sensor_id;sensor_type;location;lat;lon;timestamp;P1;durP1;ratioP1;P2;durP2;ratioP2
69989;SDS011;57331;52.054;5.294;2023-03-14T00:01:08;14.75;;;4.40;;
69989;SDS011;57331;52.054;5.294;2023-03-14T00:03:40;17.17;;;4.00;;
69989;SDS011;57331;52.054;5.294;2023-03-14T00:06:08;17.15;;;4.32;;
69989;SDS011;57331;52.054;5.294;2023-03-14T00:08:36;22.60;;;4.30;;
69989;SDS011;57331;52.054;5.294;2023-03-14T00:11:21;24.23;;;4.28;;
69989;SDS011;57331;52.054;5.294;2023-03-14T00:13:49;18.17;;;3.83;;
69989;SDS011;57331;52.054;5.294;2023-03-14T00:16:16;15.30;;;3.88;;
69989;SDS011;57331;52.054;5.294;2023-03-14T00:18:44;18.75;;;4.43;;
69989;SDS011;57331;52.054;5.294;2023-03-14T00:21:11;19.07;;;4.17;;
69989;SDS011;57331;52.054;5.294;2023-03-14T00:23:39;8.02;;;2.90;;
69989;SDS011;57331;52.054;5.294;2023-03-14T00:26:08;18.65;;;4.20;;
69989;SDS011;57331;52.054;5.294;2023-03-14T00:28:37;17.50;;;2.92;;
69989;SDS011;57331;52.054;5.294;2023-03-14T00:31:06;11.52;;;3.08;;
69989;SDS011;57331;52.054;5.294;2023-03-14T00:33:34;10.80;;;2.87;;
69989;SDS011;57331;52.054;5.294;2023-03-14T00:36:06;9.63;;;2.90;;
69989;SDS011;57331;52.054;5.294;2023-03-14T00:38:39;10.27;;;2.60;;
69989;SDS011;57331;52.054;5.294;2023-03-14T00:41:17;12.18;;;2.55;;
69989;SDS011;57331;52.054;5.294;2023-03-14T00:43:46;8.52;;;2.30;;
69989;SDS011;57331;52.054;5.294;2023-03-14T00:46:13;9.97;;;2.37;;
69989;SDS011;57331;52.054;5.294;2023-03-14T00:48:43;11.73;;;2.83;;
69989;SDS011;57331;52.054;5.294;2023-03-14T00:51:11;17.10;;;3.28;;
69989;SDS011;57331;52.054;5.294;2023-03-14T00:53:42;9.95;;;2.63;;
69989;SDS011;57331;52.054;5.294;2023-03-14T00:56:10;7.25;;;2.30;;
69989;SDS011;57331;52.054;5.294;2023-03-14T00:58:38;9.53;;;2.70;;
69989;SDS011;57331;52.054;5.294;2023-03-14T01:01:11;8.70;;;2.40;;
69989;SDS011;57331;52.054;5.294;2023-03-14T01:03:40;12.82;;;2.75;;
69989;SDS011;57331;52.054;5.294;2023-03-14T01:06:11;10.57;;;2.70;;
69989;SDS011;57331;52.054;5.294;2023-03-14T01:08:43;10.45;;;2.58;;
69989;SDS011;57331;52.054;5.294;2023-03-14T01:11:12;7.80;;;2.10;;
69989;SDS011;57331;52.054;5.294;2023-03-14T01:13:44;5.03;;;2.42;;
69989;SDS011;57331;52.054;5.294;2023-03-14T01:16:12;12.15;;;2.35;;
69989;SDS011;57331;52.054;5.294;2023-03-14T01:18:40;6.40;;;2.40;;
69989;SDS011;57331;52.054;5.294;2023-03-14T01:21:19;9.77;;;2.30;;
69989;SDS011;57331;52.054;5.294;2023-03-14T01:23:52;5.93;;;1.80;;
69989;SDS011;57331;52.054;5.294;2023-03-14T01:26:20;11.98;;;2.20;;
69989;SDS011;57331;52.054;5.294;2023-03-14T01:28:49;8.65;;;2.35;;
69989;SDS011;57331;52.054;5.294;2023-03-14T01:31:18;7.47;;;1.88;;
69989;SDS011;57331;52.054;5.294;2023-03-14T01:33:46;6.78;;;1.80;;
69989;SDS011;57331;52.054;5.294;2023-03-14T01:36:13;10.80;;;2.37;;
69989;SDS011;57331;52.054;5.294;2023-03-14T01:38:42;9.00;;;2.30;;
69989;SDS011;57331;52.054;5.294;2023-03-14T01:41:12;7.82;;;2.20;;
69989;SDS011;57331;52.054;5.294;2023-03-14T01:43:48;12.05;;;2.03;;
69989;SDS011;57331;52.054;5.294;2023-03-14T01:51:33;13.05;;;2.53;;
69989;SDS011;57331;52.054;5.294;2023-03-14T01:56:48;14.52;;;2.60;;
69989;SDS011;57331;52.054;5.294;2023-03-14T01:59:19;8.40;;;2.15;;
69989;SDS011;57331;52.054;5.294;2023-03-14T02:01:47;7.73;;;1.60;;
69989;SDS011;57331;52.054;5.294;2023-03-14T02:04:17;6.43;;;2.10;;
69989;SDS011;57331;52.054;5.294;2023-03-14T02:09:43;11.93;;;1.90;;
69989;SDS011;57331;52.054;5.294;2023-03-14T02:12:16;8.88;;;2.45;;
69989;SDS011;57331;52.054;5.294;2023-03-14T02:14:50;12.33;;;3.33;;
69989;SDS011;57331;52.054;5.294;2023-03-14T02:17:24;8.38;;;2.10;;
69989;SDS011;57331;52.054;5.294;2023-03-14T02:20:07;12.27;;;2.17;;
69989;SDS011;57331;52.054;5.294;2023-03-14T02:22:40;7.30;;;2.75;;
69989;SDS011;57331;52.054;5.294;2023-03-14T02:25:16;8.38;;;2.10;;
69989;SDS011;57331;52.054;5.294;2023-03-14T02:27:51;10.93;;;1.97;;
69989;SDS011;57331;52.054;5.294;2023-03-14T02:32:47;7.38;;;2.28;;
69989;SDS011;57331;52.054;5.294;2023-03-14T02:35:27;8.30;;;2.42;;
69989;SDS011;57331;52.054;5.294;2023-03-14T02:37:57;6.78;;;1.77;;
69989;SDS011;57331;52.054;5.294;2023-03-14T02:40:39;9.50;;;2.17;;
69989;SDS011;57331;52.054;5.294;2023-03-14T02:43:07;11.18;;;2.50;;
69989;SDS011;57331;52.054;5.294;2023-03-14T02:45:40;13.77;;;2.63;;
69989;SDS011;57331;52.054;5.294;2023-03-14T02:48:15;11.43;;;2.70;;
69989;SDS011;57331;52.054;5.294;2023-03-14T02:50:46;9.50;;;2.63;;
69989;SDS011;57331;52.054;5.294;2023-03-14T02:53:16;6.43;;;2.30;;
69989;SDS011;57331;52.054;5.294;2023-03-14T02:55:47;13.88;;;2.38;;
69989;SDS011;57331;52.054;5.294;2023-03-14T02:58:18;12.68;;;2.95;;
69989;SDS011;57331;52.054;5.294;2023-03-14T03:00:49;15.82;;;2.83;;
69989;SDS011;57331;52.054;5.294;2023-03-14T03:03:16;10.20;;;3.25;;
69989;SDS011;57331;52.054;5.294;2023-03-14T03:05:47;7.90;;;2.03;;
69989;SDS011;57331;52.054;5.294;2023-03-14T03:08:18;8.23;;;1.90;;
69989;SDS011;57331;52.054;5.294;2023-03-14T03:10:47;15.05;;;2.80;;
69989;SDS011;57331;52.054;5.294;2023-03-14T03:13:14;15.60;;;2.72;;
69989;SDS011;57331;52.054;5.294;2023-03-14T03:15:43;12.30;;;3.13;;
69989;SDS011;57331;52.054;5.294;2023-03-14T03:18:11;7.40;;;2.60;;
69989;SDS011;57331;52.054;5.294;2023-03-14T03:20:38;13.68;;;3.17;;
69989;SDS011;57331;52.054;5.294;2023-03-14T03:23:05;8.70;;;2.60;;
69989;SDS011;57331;52.054;5.294;2023-03-14T03:25:33;12.02;;;2.80;;
69989;SDS011;57331;52.054;5.294;2023-03-14T03:28:03;5.43;;;2.38;;
69989;SDS011;57331;52.054;5.294;2023-03-14T03:30:37;9.63;;;2.67;;
69989;SDS011;57331;52.054;5.294;2023-03-14T03:33:08;14.32;;;2.40;;
69989;SDS011;57331;52.054;5.294;2023-03-14T03:35:46;15.18;;;2.65;;
69989;SDS011;57331;52.054;5.294;2023-03-14T03:38:30;12.75;;;3.10;;
69989;SDS011;57331;52.054;5.294;2023-03-14T03:41:01;5.43;;;1.92;;
69989;SDS011;57331;52.054;5.294;2023-03-14T03:43:30;13.10;;;2.80;;
69989;SDS011;57331;52.054;5.294;2023-03-14T03:46:01;14.80;;;3.13;;
69989;SDS011;57331;52.054;5.294;2023-03-14T03:48:29;9.75;;;2.70;;
69989;SDS011;57331;52.054;5.294;2023-03-14T03:50:59;11.05;;;2.58;;
69989;SDS011;57331;52.054;5.294;2023-03-14T03:53:27;16.67;;;2.85;;
69989;SDS011;57331;52.054;5.294;2023-03-14T03:56:03;9.93;;;2.17;;
69989;SDS011;57331;52.054;5.294;2023-03-14T03:58:30;17.20;;;2.70;;
69989;SDS011;57331;52.054;5.294;2023-03-14T04:00:57;13.85;;;2.80;;
69989;SDS011;57331;52.054;5.294;2023-03-14T04:03:24;12.52;;;2.20;;
69989;SDS011;57331;52.054;5.294;2023-03-14T04:06:13;9.60;;;2.50;;
69989;SDS011;57331;52.054;5.294;2023-03-14T04:08:43;12.87;;;3.03;;
69989;SDS011;57331;52.054;5.294;2023-03-14T04:11:21;7.82;;;2.17;;
69989;SDS011;57331;52.054;5.294;2023-03-14T04:13:58;12.30;;;2.53;;
69989;SDS011;57331;52.054;5.294;2023-03-14T04:16:27;11.95;;;2.63;;
69989;SDS011;57331;52.054;5.294;2023-03-14T04:19:01;8.90;;;2.30;;
69989;SDS011;57331;52.054;5.294;2023-03-14T04:21:30;12.27;;;2.20;;
69989;SDS011;57331;52.054;5.294;2023-03-14T04:23:57;8.00;;;2.50;;
69989;SDS011;57331;52.054;5.294;2023-03-14T04:26:28;9.77;;;2.60;;
69989;SDS011;57331;52.054;5.294;2023-03-14T04:28:55;13.30;;;1.95;;
69989;SDS011;57331;52.054;5.294;2023-03-14T04:31:23;8.35;;;1.83;;
69989;SDS011;57331;52.054;5.294;2023-03-14T04:33:50;9.40;;;2.07;;
69989;SDS011;57331;52.054;5.294;2023-03-14T04:36:25;10.60;;;2.47;;
69989;SDS011;57331;52.054;5.294;2023-03-14T04:38:52;10.38;;;2.13;;
69989;SDS011;57331;52.054;5.294;2023-03-14T04:41:21;7.95;;;2.10;;
69989;SDS011;57331;52.054;5.294;2023-03-14T04:43:49;7.75;;;2.13;;
69989;SDS011;57331;52.054;5.294;2023-03-14T04:46:17;9.40;;;2.73;;
69989;SDS011;57331;52.054;5.294;2023-03-14T04:48:44;8.52;;;2.22;;
69989;SDS011;57331;52.054;5.294;2023-03-14T04:51:12;7.20;;;2.17;;
69989;SDS011;57331;52.054;5.294;2023-03-14T04:53:39;11.77;;;2.45;;
69989;SDS011;57331;52.054;5.294;2023-03-14T04:56:09;13.82;;;2.45;;
69989;SDS011;57331;52.054;5.294;2023-03-14T04:58:41;8.90;;;2.60;;
69989;SDS011;57331;52.054;5.294;2023-03-14T05:01:08;10.25;;;2.15;;
69989;SDS011;57331;52.054;5.294;2023-03-14T05:03:41;12.38;;;2.05;;
69989;SDS011;57331;52.054;5.294;2023-03-14T05:06:27;9.95;;;2.45;;
69989;SDS011;57331;52.054;5.294;2023-03-14T05:09:22;7.00;;;2.33;;
69989;SDS011;57331;52.054;5.294;2023-03-14T05:12:25;6.23;;;1.83;;
69989;SDS011;57331;52.054;5.294;2023-03-14T05:15:15;5.65;;;1.95;;
69989;SDS011;57331;52.054;5.294;2023-03-14T05:18:06;10.68;;;2.63;;
69989;SDS011;57331;52.054;5.294;2023-03-14T05:20:52;9.48;;;2.60;;
69989;SDS011;57331;52.054;5.294;2023-03-14T05:23:40;6.07;;;1.88;;
69989;SDS011;57331;52.054;5.294;2023-03-14T05:26:27;5.00;;;2.07;;
69989;SDS011;57331;52.054;5.294;2023-03-14T05:29:17;9.30;;;2.40;;
69989;SDS011;57331;52.054;5.294;2023-03-14T05:31:59;5.97;;;2.20;;
69989;SDS011;57331;52.054;5.294;2023-03-14T05:34:44;9.80;;;2.67;;
69989;SDS011;57331;52.054;5.294;2023-03-14T05:37:40;8.70;;;2.42;;
69989;SDS011;57331;52.054;5.294;2023-03-14T05:40:37;8.40;;;2.70;;
69989;SDS011;57331;52.054;5.294;2023-03-14T05:43:24;11.20;;;3.00;;
69989;SDS011;57331;52.054;5.294;2023-03-14T05:45:58;7.20;;;2.42;;
69989;SDS011;57331;52.054;5.294;2023-03-14T05:48:40;13.32;;;3.33;;
69989;SDS011;57331;52.054;5.294;2023-03-14T05:51:15;11.57;;;3.45;;
69989;SDS011;57331;52.054;5.294;2023-03-14T05:53:46;7.00;;;3.00;;
69989;SDS011;57331;52.054;5.294;2023-03-14T05:56:32;9.27;;;3.38;;
69989;SDS011;57331;52.054;5.294;2023-03-14T05:59:08;12.18;;;3.08;;
69989;SDS011;57331;52.054;5.294;2023-03-14T06:02:11;8.10;;;3.03;;
69989;SDS011;57331;52.054;5.294;2023-03-14T06:04:54;7.57;;;2.92;;
69989;SDS011;57331;52.054;5.294;2023-03-14T06:07:21;12.83;;;3.67;;
69989;SDS011;57331;52.054;5.294;2023-03-14T06:09:48;11.02;;;3.35;;
69989;SDS011;57331;52.054;5.294;2023-03-14T06:12:17;12.38;;;4.68;;
69989;SDS011;57331;52.054;5.294;2023-03-14T06:14:45;14.32;;;4.53;;
69989;SDS011;57331;52.054;5.294;2023-03-14T06:17:12;11.77;;;3.97;;
69989;SDS011;57331;52.054;5.294;2023-03-14T06:19:55;10.80;;;4.93;;
69989;SDS011;57331;52.054;5.294;2023-03-14T06:22:22;11.98;;;3.65;;
69989;SDS011;57331;52.054;5.294;2023-03-14T06:24:51;8.93;;;3.67;;
69989;SDS011;57331;52.054;5.294;2023-03-14T06:27:20;10.25;;;3.55;;
69989;SDS011;57331;52.054;5.294;2023-03-14T06:29:51;13.73;;;5.35;;
69989;SDS011;57331;52.054;5.294;2023-03-14T06:32:19;9.47;;;4.67;;
69989;SDS011;57331;52.054;5.294;2023-03-14T06:34:50;9.57;;;3.97;;
69989;SDS011;57331;52.054;5.294;2023-03-14T06:37:18;12.85;;;3.85;;
69989;SDS011;57331;52.054;5.294;2023-03-14T06:39:47;10.70;;;2.63;;
69989;SDS011;57331;52.054;5.294;2023-03-14T06:42:30;11.07;;;2.75;;
69989;SDS011;57331;52.054;5.294;2023-03-14T06:44:57;5.03;;;1.90;;
69989;SDS011;57331;52.054;5.294;2023-03-14T06:47:26;3.75;;;1.48;;
69989;SDS011;57331;52.054;5.294;2023-03-14T06:49:54;4.47;;;1.75;;
69989;SDS011;57331;52.054;5.294;2023-03-14T06:52:22;7.15;;;1.88;;
69989;SDS011;57331;52.054;5.294;2023-03-14T06:54:48;3.67;;;1.45;;
69989;SDS011;57331;52.054;5.294;2023-03-14T06:57:19;4.10;;;1.20;;
69989;SDS011;57331;52.054;5.294;2023-03-14T06:59:47;6.95;;;1.70;;
69989;SDS011;57331;52.054;5.294;2023-03-14T07:02:14;3.35;;;1.40;;
69989;SDS011;57331;52.054;5.294;2023-03-14T07:04:42;4.30;;;1.33;;
69989;SDS011;57331;52.054;5.294;2023-03-14T07:07:10;5.32;;;1.40;;
69989;SDS011;57331;52.054;5.294;2023-03-14T07:09:37;6.43;;;1.80;;
69989;SDS011;57331;52.054;5.294;2023-03-14T07:12:05;6.72;;;2.08;;
69989;SDS011;57331;52.054;5.294;2023-03-14T07:14:32;4.13;;;1.73;;
69989;SDS011;57331;52.054;5.294;2023-03-14T07:16:59;7.43;;;1.65;;
69989;SDS011;57331;52.054;5.294;2023-03-14T07:19:26;3.55;;;1.60;;
69989;SDS011;57331;52.054;5.294;2023-03-14T07:21:54;3.97;;;1.63;;
69989;SDS011;57331;52.054;5.294;2023-03-14T07:24:24;6.03;;;1.67;;
69989;SDS011;57331;52.054;5.294;2023-03-14T07:26:51;7.93;;;1.90;;
69989;SDS011;57331;52.054;5.294;2023-03-14T07:29:23;3.67;;;1.30;;
69989;SDS011;57331;52.054;5.294;2023-03-14T07:31:50;4.43;;;1.80;;
69989;SDS011;57331;52.054;5.294;2023-03-14T07:34:19;6.87;;;2.10;;
69989;SDS011;57331;52.054;5.294;2023-03-14T07:36:46;7.38;;;2.38;;
69989;SDS011;57331;52.054;5.294;2023-03-14T07:39:13;6.13;;;2.00;;
69989;SDS011;57331;52.054;5.294;2023-03-14T07:41:40;4.82;;;1.90;;
69989;SDS011;57331;52.054;5.294;2023-03-14T07:44:36;6.32;;;2.10;;
69989;SDS011;57331;52.054;5.294;2023-03-14T07:47:03;6.50;;;1.63;;
69989;SDS011;57331;52.054;5.294;2023-03-14T07:49:30;6.65;;;2.05;;
69989;SDS011;57331;52.054;5.294;2023-03-14T07:51:58;5.25;;;2.25;;
69989;SDS011;57331;52.054;5.294;2023-03-14T07:54:25;4.03;;;1.90;;
69989;SDS011;57331;52.054;5.294;2023-03-14T07:56:52;5.60;;;2.10;;
69989;SDS011;57331;52.054;5.294;2023-03-14T07:59:19;7.07;;;1.90;;
69989;SDS011;57331;52.054;5.294;2023-03-14T08:01:47;7.43;;;1.60;;
69989;SDS011;57331;52.054;5.294;2023-03-14T08:04:14;4.78;;;1.58;;
69989;SDS011;57331;52.054;5.294;2023-03-14T08:06:42;5.18;;;1.70;;
69989;SDS011;57331;52.054;5.294;2023-03-14T08:09:09;5.78;;;1.80;;
69989;SDS011;57331;52.054;5.294;2023-03-14T08:11:36;5.70;;;1.57;;
69989;SDS011;57331;52.054;5.294;2023-03-14T08:14:03;6.60;;;1.40;;
69989;SDS011;57331;52.054;5.294;2023-03-14T08:16:31;4.53;;;1.50;;
69989;SDS011;57331;52.054;5.294;2023-03-14T08:18:58;4.00;;;1.48;;
69989;SDS011;57331;52.054;5.294;2023-03-14T08:21:25;7.05;;;2.00;;
69989;SDS011;57331;52.054;5.294;2023-03-14T08:23:52;4.37;;;1.43;;
69989;SDS011;57331;52.054;5.294;2023-03-14T08:26:19;7.35;;;1.60;;
69989;SDS011;57331;52.054;5.294;2023-03-14T08:28:47;2.50;;;1.20;;
69989;SDS011;57331;52.054;5.294;2023-03-14T08:31:14;6.88;;;1.67;;
69989;SDS011;57331;52.054;5.294;2023-03-14T08:33:42;5.78;;;1.55;;
69989;SDS011;57331;52.054;5.294;2023-03-14T08:36:09;2.67;;;1.30;;
69989;SDS011;57331;52.054;5.294;2023-03-14T08:38:37;3.15;;;1.50;;
69989;SDS011;57331;52.054;5.294;2023-03-14T08:41:04;5.35;;;1.60;;
69989;SDS011;57331;52.054;5.294;2023-03-14T08:43:31;8.95;;;1.38;;
69989;SDS011;57331;52.054;5.294;2023-03-14T08:45:59;8.93;;;1.30;;
69989;SDS011;57331;52.054;5.294;2023-03-14T08:48:27;2.87;;;1.13;;
69989;SDS011;57331;52.054;5.294;2023-03-14T08:50:56;5.75;;;1.27;;
69989;SDS011;57331;52.054;5.294;2023-03-14T08:53:30;4.80;;;1.10;;
69989;SDS011;57331;52.054;5.294;2023-03-14T08:55:57;2.63;;;1.10;;
69989;SDS011;57331;52.054;5.294;2023-03-14T08:58:24;6.40;;;1.65;;
69989;SDS011;57331;52.054;5.294;2023-03-14T09:00:51;5.67;;;1.70;;
69989;SDS011;57331;52.054;5.294;2023-03-14T09:03:19;4.80;;;1.42;;
69989;SDS011;57331;52.054;5.294;2023-03-14T09:05:46;3.60;;;1.58;;
69989;SDS011;57331;52.054;5.294;2023-03-14T09:08:14;7.57;;;1.63;;
69989;SDS011;57331;52.054;5.294;2023-03-14T09:10:41;11.70;;;2.45;;
69989;SDS011;57331;52.054;5.294;2023-03-14T09:13:08;13.87;;;3.97;;
69989;SDS011;57331;52.054;5.294;2023-03-14T09:15:36;11.82;;;1.70;;
69989;SDS011;57331;52.054;5.294;2023-03-14T09:18:02;7.53;;;1.63;;
69989;SDS011;57331;52.054;5.294;2023-03-14T09:20:30;8.60;;;1.67;;
69989;SDS011;57331;52.054;5.294;2023-03-14T09:22:57;8.57;;;1.60;;
69989;SDS011;57331;52.054;5.294;2023-03-14T09:25:24;6.67;;;2.07;;
69989;SDS011;57331;52.054;5.294;2023-03-14T09:27:51;9.27;;;1.95;;
69989;SDS011;57331;52.054;5.294;2023-03-14T09:30:18;11.48;;;1.85;;
69989;SDS011;57331;52.054;5.294;2023-03-14T09:32:45;17.05;;;3.42;;
69989;SDS011;57331;52.054;5.294;2023-03-14T09:35:13;11.05;;;2.97;;
69989;SDS011;57331;52.054;5.294;2023-03-14T09:37:39;13.17;;;3.63;;
69989;SDS011;57331;52.054;5.294;2023-03-14T09:40:06;13.57;;;2.58;;
69989;SDS011;57331;52.054;5.294;2023-03-14T09:42:37;16.60;;;2.97;;
69989;SDS011;57331;52.054;5.294;2023-03-14T09:45:27;14.45;;;3.92;;
69989;SDS011;57331;52.054;5.294;2023-03-14T09:47:59;20.20;;;4.22;;
69989;SDS011;57331;52.054;5.294;2023-03-14T09:50:30;12.87;;;2.90;;
69989;SDS011;57331;52.054;5.294;2023-03-14T09:53:16;13.07;;;3.60;;
69989;SDS011;57331;52.054;5.294;2023-03-14T09:55:45;14.52;;;3.08;;
69989;SDS011;57331;52.054;5.294;2023-03-14T09:58:19;15.93;;;2.63;;
69989;SDS011;57331;52.054;5.294;2023-03-14T10:00:47;10.43;;;2.70;;
69989;SDS011;57331;52.054;5.294;2023-03-14T10:03:21;15.90;;;2.80;;
69989;SDS011;57331;52.054;5.294;2023-03-14T10:05:50;9.23;;;2.10;;
69989;SDS011;57331;52.054;5.294;2023-03-14T10:08:18;20.40;;;3.05;;
69989;SDS011;57331;52.054;5.294;2023-03-14T10:10:45;12.68;;;2.13;;
69989;SDS011;57331;52.054;5.294;2023-03-14T10:13:17;14.45;;;2.70;;
69989;SDS011;57331;52.054;5.294;2023-03-14T10:15:52;22.33;;;3.00;;
69989;SDS011;57331;52.054;5.294;2023-03-14T10:18:28;13.13;;;2.38;;
69989;SDS011;57331;52.054;5.294;2023-03-14T10:24:07;16.80;;;2.75;;
69989;SDS011;57331;52.054;5.294;2023-03-14T10:26:35;13.77;;;2.88;;
69989;SDS011;57331;52.054;5.294;2023-03-14T10:29:04;12.30;;;2.20;;
69989;SDS011;57331;52.054;5.294;2023-03-14T10:31:54;17.70;;;4.15;;
69989;SDS011;57331;52.054;5.294;2023-03-14T10:34:33;33.30;;;9.52;;
69989;SDS011;57331;52.054;5.294;2023-03-14T10:37:07;22.25;;;7.07;;
69989;SDS011;57331;52.054;5.294;2023-03-14T10:39:48;21.33;;;4.25;;
69989;SDS011;57331;52.054;5.294;2023-03-14T10:44:44;32.13;;;5.13;;
69989;SDS011;57331;52.054;5.294;2023-03-14T10:47:19;16.98;;;3.25;;
69989;SDS011;57331;52.054;5.294;2023-03-14T10:49:49;27.98;;;4.53;;
69989;SDS011;57331;52.054;5.294;2023-03-14T10:55:14;21.53;;;3.00;;
69989;SDS011;57331;52.054;5.294;2023-03-14T10:57:41;14.23;;;2.42;;
69989;SDS011;57331;52.054;5.294;2023-03-14T11:00:30;15.77;;;3.00;;
69989;SDS011;57331;52.054;5.294;2023-03-14T11:05:31;18.42;;;2.47;;
69989;SDS011;57331;52.054;5.294;2023-03-14T11:08:13;15.03;;;2.87;;
69989;SDS011;57331;52.054;5.294;2023-03-14T11:11:18;24.45;;;3.17;;
69989;SDS011;57331;52.054;5.294;2023-03-14T11:16:40;21.17;;;3.63;;
69989;SDS011;57331;52.054;5.294;2023-03-14T11:22:27;17.60;;;7.00;;
69989;SDS011;57331;52.054;5.294;2023-03-14T11:27:44;20.35;;;4.15;;
69989;SDS011;57331;52.054;5.294;2023-03-14T11:30:31;28.52;;;6.78;;
69989;SDS011;57331;52.054;5.294;2023-03-14T11:33:13;23.20;;;4.93;;
69989;SDS011;57331;52.054;5.294;2023-03-14T11:35:47;32.10;;;5.73;;
69989;SDS011;57331;52.054;5.294;2023-03-14T11:40:53;22.15;;;3.75;;
69989;SDS011;57331;52.054;5.294;2023-03-14T11:43:37;18.80;;;2.83;;
69989;SDS011;57331;52.054;5.294;2023-03-14T11:46:10;18.70;;;4.18;;
69989;SDS011;57331;52.054;5.294;2023-03-14T11:51:21;12.60;;;2.33;;
69989;SDS011;57331;52.054;5.294;2023-03-14T11:54:03;17.70;;;2.50;;
69989;SDS011;57331;52.054;5.294;2023-03-14T11:59:24;12.98;;;2.80;;
69989;SDS011;57331;52.054;5.294;2023-03-14T12:02:03;13.57;;;3.47;;
69989;SDS011;57331;52.054;5.294;2023-03-14T12:07:17;11.90;;;2.80;;
69989;SDS011;57331;52.054;5.294;2023-03-14T12:10:11;13.35;;;3.50;;
69989;SDS011;57331;52.054;5.294;2023-03-14T12:12:38;15.43;;;4.05;;
69989;SDS011;57331;52.054;5.294;2023-03-14T12:15:15;9.67;;;2.30;;
69989;SDS011;57331;52.054;5.294;2023-03-14T12:17:54;10.20;;;2.55;;
69989;SDS011;57331;52.054;5.294;2023-03-14T12:20:25;7.75;;;2.28;;
69989;SDS011;57331;52.054;5.294;2023-03-14T12:22:53;9.57;;;2.47;;
69989;SDS011;57331;52.054;5.294;2023-03-14T12:25:26;9.82;;;2.35;;
69989;SDS011;57331;52.054;5.294;2023-03-14T12:35:45;10.13;;;2.50;;
69989;SDS011;57331;52.054;5.294;2023-03-14T12:41:00;9.53;;;2.37;;
69989;SDS011;57331;52.054;5.294;2023-03-14T12:43:39;7.90;;;2.58;;
69989;SDS011;57331;52.054;5.294;2023-03-14T12:51:35;9.70;;;2.60;;
69989;SDS011;57331;52.054;5.294;2023-03-14T12:59:51;11.80;;;2.55;;
69989;SDS011;57331;52.054;5.294;2023-03-14T13:02:23;12.57;;;2.90;;
69989;SDS011;57331;52.054;5.294;2023-03-14T13:04:51;9.38;;;2.90;;
69989;SDS011;57331;52.054;5.294;2023-03-14T13:15:28;10.50;;;2.53;;
69989;SDS011;57331;52.054;5.294;2023-03-14T13:18:02;11.85;;;2.90;;
69989;SDS011;57331;52.054;5.294;2023-03-14T13:20:36;9.97;;;2.60;;
69989;SDS011;57331;52.054;5.294;2023-03-14T13:23:21;17.52;;;3.33;;
69989;SDS011;57331;52.054;5.294;2023-03-14T13:25:50;8.73;;;2.40;;
69989;SDS011;57331;52.054;5.294;2023-03-14T13:28:18;17.88;;;3.08;;
69989;SDS011;57331;52.054;5.294;2023-03-14T13:30:46;12.52;;;2.95;;
69989;SDS011;57331;52.054;5.294;2023-03-14T13:33:16;14.33;;;3.03;;
69989;SDS011;57331;52.054;5.294;2023-03-14T13:35:48;10.95;;;2.40;;
69989;SDS011;57331;52.054;5.294;2023-03-14T13:38:21;12.68;;;2.55;;
69989;SDS011;57331;52.054;5.294;2023-03-14T13:40:51;6.97;;;2.20;;
69989;SDS011;57331;52.054;5.294;2023-03-14T13:48:33;30.95;;;3.33;;
69989;SDS011;57331;52.054;5.294;2023-03-14T13:51:06;13.43;;;2.53;;
69989;SDS011;57331;52.054;5.294;2023-03-14T13:56:11;12.30;;;2.35;;
69989;SDS011;57331;52.054;5.294;2023-03-14T13:58:39;7.77;;;2.30;;
69989;SDS011;57331;52.054;5.294;2023-03-14T14:01:23;7.53;;;2.10;;
69989;SDS011;57331;52.054;5.294;2023-03-14T14:03:54;10.25;;;2.42;;
69989;SDS011;57331;52.054;5.294;2023-03-14T14:06:27;9.90;;;2.38;;
69989;SDS011;57331;52.054;5.294;2023-03-14T14:09:01;12.93;;;2.33;;
69989;SDS011;57331;52.054;5.294;2023-03-14T14:11:37;13.67;;;2.20;;
69989;SDS011;57331;52.054;5.294;2023-03-14T14:17:08;24.48;;;2.53;;
69989;SDS011;57331;52.054;5.294;2023-03-14T14:19:38;9.25;;;2.25;;
69989;SDS011;57331;52.054;5.294;2023-03-14T14:22:06;8.68;;;2.38;;
69989;SDS011;57331;52.054;5.294;2023-03-14T14:24:36;10.80;;;1.97;;
69989;SDS011;57331;52.054;5.294;2023-03-14T14:29:58;14.52;;;2.85;;
69989;SDS011;57331;52.054;5.294;2023-03-14T14:32:33;6.90;;;1.40;;
69989;SDS011;57331;52.054;5.294;2023-03-14T14:35:02;10.55;;;2.22;;
69989;SDS011;57331;52.054;5.294;2023-03-14T14:37:32;4.17;;;1.67;;
69989;SDS011;57331;52.054;5.294;2023-03-14T14:40:19;17.15;;;2.85;;
69989;SDS011;57331;52.054;5.294;2023-03-14T14:42:51;7.28;;;1.95;;
69989;SDS011;57331;52.054;5.294;2023-03-14T14:45:24;7.07;;;1.88;;
69989;SDS011;57331;52.054;5.294;2023-03-14T14:52:58;9.70;;;2.28;;
69989;SDS011;57331;52.054;5.294;2023-03-14T14:55:39;11.32;;;2.22;;
69989;SDS011;57331;52.054;5.294;2023-03-14T15:01:31;5.65;;;1.50;;
69989;SDS011;57331;52.054;5.294;2023-03-14T15:04:03;6.23;;;1.60;;
69989;SDS011;57331;52.054;5.294;2023-03-14T15:06:36;6.20;;;2.65;;
69989;SDS011;57331;52.054;5.294;2023-03-14T15:09:04;9.55;;;2.50;;
69989;SDS011;57331;52.054;5.294;2023-03-14T15:11:31;11.35;;;2.38;;
69989;SDS011;57331;52.054;5.294;2023-03-14T15:13:58;12.32;;;2.10;;
69989;SDS011;57331;52.054;5.294;2023-03-14T15:16:29;10.43;;;2.10;;
69989;SDS011;57331;52.054;5.294;2023-03-14T15:18:59;5.53;;;1.63;;
69989;SDS011;57331;52.054;5.294;2023-03-14T15:21:39;8.35;;;1.77;;
69989;SDS011;57331;52.054;5.294;2023-03-14T15:24:08;7.43;;;1.50;;
69989;SDS011;57331;52.054;5.294;2023-03-14T15:26:36;4.63;;;1.55;;
69989;SDS011;57331;52.054;5.294;2023-03-14T15:29:03;8.23;;;1.60;;
69989;SDS011;57331;52.054;5.294;2023-03-14T15:31:34;5.20;;;1.50;;
69989;SDS011;57331;52.054;5.294;2023-03-14T15:34:02;5.95;;;1.65;;
69989;SDS011;57331;52.054;5.294;2023-03-14T15:36:31;9.48;;;1.73;;
69989;SDS011;57331;52.054;5.294;2023-03-14T15:38:59;5.43;;;1.77;;
69989;SDS011;57331;52.054;5.294;2023-03-14T15:41:27;9.77;;;1.63;;
69989;SDS011;57331;52.054;5.294;2023-03-14T15:43:54;6.70;;;1.73;;
69989;SDS011;57331;52.054;5.294;2023-03-14T15:46:22;6.40;;;1.77;;
69989;SDS011;57331;52.054;5.294;2023-03-14T15:48:50;9.82;;;1.90;;
69989;SDS011;57331;52.054;5.294;2023-03-14T15:51:18;6.57;;;1.73;;
69989;SDS011;57331;52.054;5.294;2023-03-14T15:53:45;12.00;;;1.90;;
69989;SDS011;57331;52.054;5.294;2023-03-14T15:56:14;15.93;;;1.88;;
69989;SDS011;57331;52.054;5.294;2023-03-14T15:58:43;10.48;;;2.25;;
69989;SDS011;57331;52.054;5.294;2023-03-14T16:01:13;4.88;;;1.88;;
69989;SDS011;57331;52.054;5.294;2023-03-14T16:03:45;7.32;;;2.17;;
69989;SDS011;57331;52.054;5.294;2023-03-14T16:06:13;8.40;;;2.97;;
69989;SDS011;57331;52.054;5.294;2023-03-14T16:08:41;10.50;;;3.20;;
69989;SDS011;57331;52.054;5.294;2023-03-14T16:11:11;12.05;;;2.47;;
69989;SDS011;57331;52.054;5.294;2023-03-14T16:13:40;8.27;;;2.60;;
69989;SDS011;57331;52.054;5.294;2023-03-14T16:16:08;20.50;;;5.03;;
69989;SDS011;57331;52.054;5.294;2023-03-14T16:18:36;10.23;;;3.43;;
69989;SDS011;57331;52.054;5.294;2023-03-14T16:21:06;11.65;;;2.40;;
69989;SDS011;57331;52.054;5.294;2023-03-14T16:23:37;5.72;;;2.50;;
69989;SDS011;57331;52.054;5.294;2023-03-14T16:26:11;13.90;;;4.40;;
69989;SDS011;57331;52.054;5.294;2023-03-14T16:28:43;12.93;;;4.35;;
69989;SDS011;57331;52.054;5.294;2023-03-14T16:31:13;9.13;;;2.80;;
69989;SDS011;57331;52.054;5.294;2023-03-14T16:33:42;11.18;;;4.55;;
69989;SDS011;57331;52.054;5.294;2023-03-14T16:36:10;11.07;;;2.88;;
69989;SDS011;57331;52.054;5.294;2023-03-14T16:38:40;9.20;;;2.53;;
69989;SDS011;57331;52.054;5.294;2023-03-14T16:43:39;14.60;;;2.50;;
69989;SDS011;57331;52.054;5.294;2023-03-14T16:46:10;10.93;;;2.90;;